Time;durP1;ratioP1;P1;durP2;ratioP2;P2;SDS_P1;SDS_P2;PMS_P1;PMS_P2;Temp;Humidity;BMP_temperature;BMP_pressure;BME280_temperature;BME280_humidity;BME280_pressure;Samples;Min_cycle;Max_cycle;Signal;HPM_P1;HPM_P2
2022/10/22 00:01:08;;;;;;;26.63;14.68;;;;;;;;;;5028000;28;20108;-55
2022/10/22 00:03:36;;;;;;;31.58;16.20;;;;;;;;;;5012192;28;20058;-55
2022/10/22 00:06:05;;;;;;;25.98;14.60;;;;;;;;;;5012700;28;20042;-52
2022/10/22 00:08:34;;;;;;;31.98;17.38;;;;;;;;;;5011580;28;20045;-49
2022/10/22 00:11:07;;;;;;;31.23;17.17;;;;;;;;;;5023749;28;20053;-48
2022/10/22 00:13:37;;;;;;;28.20;15.60;;;;;;;;;;5009845;28;20065;-48
2022/10/22 00:16:06;;;;;;;32.70;17.25;;;;;;;;;;4991710;28;20089;-49
2022/10/22 00:18:37;;;;;;;30.27;16.15;;;;;;;;;;5001732;28;20114;-48
2022/10/22 00:21:13;;;;;;;28.60;15.48;;;;;;;;;;5001543;28;20054;-52
2022/10/22 00:23:44;;;;;;;29.45;15.48;;;;;;;;;;4998413;28;20054;-52
2022/10/22 00:26:12;;;;;;;28.25;15.70;;;;;;;;;;5003175;28;20607;-49
2022/10/22 00:28:41;;;;;;;29.38;15.13;;;;;;;;;;4989501;28;20062;-48
2022/10/22 00:31:14;;;;;;;30.40;15.80;;;;;;;;;;4999968;28;20049;-50
2022/10/22 00:33:45;;;;;;;22.40;12.68;;;;;;;;;;4999424;28;20065;-51
2022/10/22 00:36:16;;;;;;;28.67;14.48;;;;;;;;;;5003032;28;20061;-49
2022/10/22 00:38:46;;;;;;;27.75;15.55;;;;;;;;;;5001531;28;20451;-48
2022/10/22 00:41:13;;;;;;;27.80;14.70;;;;;;;;;;4998981;28;20549;-48
2022/10/22 00:43:57;;;;;;;30.00;15.38;;;;;;;;;;4994934;28;20054;-48
2022/10/22 00:46:28;;;;;;;29.05;14.73;;;;;;;;;;4999022;28;20189;-50
2022/10/22 00:49:10;;;;;;;29.25;15.70;;;;;;;;;;5009392;28;20062;-50
2022/10/22 00:51:39;;;;;;;31.60;15.10;;;;;;;;;;5017035;28;20446;-48
2022/10/22 00:54:16;;;;;;;33.75;16.35;;;;;;;;;;5017191;28;20426;-48
2022/10/22 00:56:47;;;;;;;30.08;14.90;;;;;;;;;;5014159;28;20127;-51
2022/10/22 00:59:16;;;;;;;28.25;15.43;;;;;;;;;;5008976;28;20054;-48
2022/10/22 01:01:46;;;;;;;30.13;16.25;;;;;;;;;;4998627;28;20042;-48
2022/10/22 01:04:22;;;;;;;29.95;15.57;;;;;;;;;;5001742;28;20487;-48
2022/10/22 01:06:52;;;;;;;35.28;16.55;;;;;;;;;;5011265;28;20129;-48
2022/10/22 01:09:23;;;;;;;30.02;15.77;;;;;;;;;;4996680;28;20487;-48
2022/10/22 01:11:54;;;;;;;32.92;15.82;;;;;;;;;;5004568;28;20045;-49
2022/10/22 01:14:27;;;;;;;27.92;16.33;;;;;;;;;;4995445;28;20054;-48
2022/10/22 01:16:56;;;;;;;36.70;17.58;;;;;;;;;;4992857;28;20077;-48
2022/10/22 01:19:38;;;;;;;32.78;17.10;;;;;;;;;;4999172;28;20053;-48
2022/10/22 01:22:17;;;;;;;33.65;16.48;;;;;;;;;;4999635;28;20068;-48
2022/10/22 01:24:55;;;;;;;29.73;14.70;;;;;;;;;;5012701;28;20046;-48
2022/10/22 01:27:30;;;;;;;28.83;15.18;;;;;;;;;;5001242;28;20145;-49
2022/10/22 01:30:00;;;;;;;31.15;16.23;;;;;;;;;;5014776;28;20695;-48
2022/10/22 01:32:29;;;;;;;27.25;14.43;;;;;;;;;;4997010;28;20046;-48
2022/10/22 01:34:59;;;;;;;31.50;15.45;;;;;;;;;;5008951;28;20065;-48
2022/10/22 01:37:28;;;;;;;28.75;15.25;;;;;;;;;;5013066;28;20058;-48
2022/10/22 01:39:59;;;;;;;27.15;14.18;;;;;;;;;;5011179;28;20063;-50
2022/10/22 01:42:25;;;;;;;27.67;13.65;;;;;;;;;;5007479;28;20635;-48
2022/10/22 01:44:55;;;;;;;27.20;14.35;;;;;;;;;;5010278;28;20072;-50
2022/10/22 01:47:34;;;;;;;30.00;13.05;;;;;;;;;;5022041;28;20057;-48
2022/10/22 01:50:14;;;;;;;29.75;14.88;;;;;;;;;;5012285;28;20072;-49
2022/10/22 01:52:49;;;;;;;31.27;16.60;;;;;;;;;;5020067;28;20050;-49
2022/10/22 01:55:24;;;;;;;26.02;14.25;;;;;;;;;;5012429;28;20066;-48
2022/10/22 01:57:56;;;;;;;26.02;13.50;;;;;;;;;;5012763;28;20487;-48
2022/10/22 02:00:23;;;;;;;25.80;14.20;;;;;;;;;;5011361;28;20081;-48
2022/10/22 02:03:03;;;;;;;30.48;15.13;;;;;;;;;;5012279;28;20057;-49
2022/10/22 02:05:34;;;;;;;32.08;15.70;;;;;;;;;;5011429;28;20072;-48
2022/10/22 02:08:05;;;;;;;25.90;14.63;;;;;;;;;;5002185;28;20082;-49
2022/10/22 02:10:42;;;;;;;29.48;16.08;;;;;;;;;;4991893;28;20399;-49
2022/10/22 02:13:19;;;;;;;26.25;14.57;;;;;;;;;;4991650;28;20042;-49
2022/10/22 02:15:49;;;;;;;29.70;14.20;;;;;;;;;;4995494;28;20071;-50
2022/10/22 02:18:31;;;;;;;27.50;14.00;;;;;;;;;;5011694;28;20054;-51
2022/10/22 02:21:01;;;;;;;30.98;14.38;;;;;;;;;;5010818;28;20061;-49
2022/10/22 02:23:30;;;;;;;25.55;13.27;;;;;;;;;;5010950;28;20443;-49
2022/10/22 02:26:01;;;;;;;26.80;15.18;;;;;;;;;;5010741;28;20157;-49
2022/10/22 02:28:33;;;;;;;25.92;14.35;;;;;;;;;;5010838;28;20469;-48
2022/10/22 02:31:05;;;;;;;28.13;13.82;;;;;;;;;;5002610;28;20046;-48
2022/10/22 02:33:39;;;;;;;24.60;13.80;;;;;;;;;;5010946;28;20053;-48
2022/10/22 02:36:16;;;;;;;30.85;16.02;;;;;;;;;;5011997;28;20054;-51
2022/10/22 02:38:45;;;;;;;26.45;14.32;;;;;;;;;;5012169;28;20061;-48
2022/10/22 02:41:15;;;;;;;29.33;15.68;;;;;;;;;;5024353;28;20741;-48
2022/10/22 02:43:43;;;;;;;29.80;15.15;;;;;;;;;;5011346;28;20167;-49
2022/10/22 02:46:12;;;;;;;27.98;14.55;;;;;;;;;;4996830;28;20060;-50
2022/10/22 02:48:47;;;;;;;27.40;14.18;;;;;;;;;;5012260;28;20046;-50
2022/10/22 02:51:14;;;;;;;27.08;13.57;;;;;;;;;;5006853;28;20089;-49
2022/10/22 02:53:40;;;;;;;26.15;14.55;;;;;;;;;;5002553;28;20403;-52
2022/10/22 02:56:11;;;;;;;26.35;13.45;;;;;;;;;;5010857;28;20058;-48
2022/10/22 02:58:40;;;;;;;28.27;14.85;;;;;;;;;;5003399;28;20056;-48
2022/10/22 03:01:10;;;;;;;26.08;12.32;;;;;;;;;;5005264;28;20578;-48
2022/10/22 03:03:40;;;;;;;27.85;13.93;;;;;;;;;;5013551;28;20443;-48
2022/10/22 03:06:12;;;;;;;27.40;12.75;;;;;;;;;;5012027;28;20053;-51
2022/10/22 03:08:38;;;;;;;26.73;13.65;;;;;;;;;;4993763;28;20050;-48
2022/10/22 03:11:08;;;;;;;25.92;13.65;;;;;;;;;;5010303;28;20061;-51
2022/10/22 03:13:35;;;;;;;24.45;13.82;;;;;;;;;;5011052;28;20053;-48
2022/10/22 03:16:03;;;;;;;24.80;12.13;;;;;;;;;;5012269;28;20522;-48
2022/10/22 03:18:32;;;;;;;26.35;13.55;;;;;;;;;;5013242;28;20064;-47
2022/10/22 03:21:04;;;;;;;24.55;13.15;;;;;;;;;;5024906;28;20141;-49
2022/10/22 03:23:35;;;;;;;27.15;13.25;;;;;;;;;;5011063;28;20675;-48
2022/10/22 03:26:02;;;;;;;23.98;12.40;;;;;;;;;;5023592;28;20081;-49
2022/10/22 03:28:29;;;;;;;27.20;12.35;;;;;;;;;;5012142;28;20053;-48
2022/10/22 03:30:56;;;;;;;23.42;12.07;;;;;;;;;;5001806;28;20057;-48
2022/10/22 03:33:25;;;;;;;22.58;12.18;;;;;;;;;;5000201;28;20499;-48
2022/10/22 03:35:55;;;;;;;25.08;11.75;;;;;;;;;;5010921;28;20487;-48
2022/10/22 03:38:24;;;;;;;30.60;13.77;;;;;;;;;;5001577;28;20532;-48
2022/10/22 03:40:56;;;;;;;24.85;12.07;;;;;;;;;;4989811;28;20058;-49
2022/10/22 03:43:25;;;;;;;26.15;13.43;;;;;;;;;;5010755;28;20054;-48
2022/10/22 03:45:55;;;;;;;24.73;13.00;;;;;;;;;;5008904;28;20597;-48
2022/10/22 03:48:25;;;;;;;27.60;13.07;;;;;;;;;;5010140;28;20046;-49
2022/10/22 03:50:51;;;;;;;28.52;14.15;;;;;;;;;;5009496;28;20085;-49
2022/10/22 03:53:21;;;;;;;25.30;13.25;;;;;;;;;;5008847;28;20049;-48
2022/10/22 03:55:49;;;;;;;27.55;14.00;;;;;;;;;;5009685;28;20077;-49
2022/10/22 03:58:19;;;;;;;24.23;12.48;;;;;;;;;;5013620;28;20053;-50
2022/10/22 04:00:45;;;;;;;25.67;13.07;;;;;;;;;;5019300;28;20061;-48
2022/10/22 04:03:15;;;;;;;26.30;12.93;;;;;;;;;;5008908;28;20048;-48
2022/10/22 04:05:43;;;;;;;16.88;10.10;;;;;;;;;;5010058;28;20045;-49
2022/10/22 04:08:12;;;;;;;22.65;12.90;;;;;;;;;;4999943;28;20054;-48
2022/10/22 04:10:40;;;;;;;23.73;12.90;;;;;;;;;;5008070;28;20483;-51
2022/10/22 04:13:10;;;;;;;24.73;12.73;;;;;;;;;;5010498;28;20046;-48
2022/10/22 04:15:47;;;;;;;24.30;12.80;;;;;;;;;;4995512;28;20045;-48
2022/10/22 04:18:17;;;;;;;23.70;12.27;;;;;;;;;;5010037;28;20061;-49
2022/10/22 04:20:48;;;;;;;24.20;12.82;;;;;;;;;;5013106;28;20053;-48
2022/10/22 04:23:17;;;;;;;25.25;12.00;;;;;;;;;;5012708;28;20043;-48
2022/10/22 04:25:47;;;;;;;26.00;14.20;;;;;;;;;;5023106;28;20501;-48
2022/10/22 04:28:16;;;;;;;25.88;13.60;;;;;;;;;;5023389;28;20471;-50
2022/10/22 04:30:51;;;;;;;25.65;13.15;;;;;;;;;;5012150;28;20049;-50
2022/10/22 04:33:20;;;;;;;26.00;13.90;;;;;;;;;;5022887;28;20045;-50
2022/10/22 04:35:48;;;;;;;27.90;15.25;;;;;;;;;;5018692;28;20054;-48
2022/10/22 04:38:18;;;;;;;25.90;14.32;;;;;;;;;;5001116;28;20473;-49
2022/10/22 04:40:47;;;;;;;28.45;14.70;;;;;;;;;;5012676;28;20050;-48
2022/10/22 04:43:13;;;;;;;25.17;12.98;;;;;;;;;;5014473;28;20045;-51
2022/10/22 04:45:41;;;;;;;29.77;14.20;;;;;;;;;;5012708;28;20463;-48
2022/10/22 04:48:16;;;;;;;26.70;14.25;;;;;;;;;;5014446;28;20665;-48
2022/10/22 04:50:44;;;;;;;30.35;15.30;;;;;;;;;;5011058;28;20049;-49
2022/10/22 04:53:12;;;;;;;31.92;15.68;;;;;;;;;;5014731;28;20050;-49
2022/10/22 04:55:42;;;;;;;28.70;15.95;;;;;;;;;;5013758;28;20069;-48
2022/10/22 04:58:10;;;;;;;27.38;14.77;;;;;;;;;;5010593;28;20060;-48
2022/10/22 05:00:38;;;;;;;27.25;14.30;;;;;;;;;;4996550;28;20042;-51
2022/10/22 05:03:07;;;;;;;25.65;13.20;;;;;;;;;;5008549;28;20045;-48
2022/10/22 05:05:47;;;;;;;26.95;13.70;;;;;;;;;;5012443;28;20050;-48
2022/10/22 05:08:14;;;;;;;27.35;14.05;;;;;;;;;;5003422;28;20529;-49
2022/10/22 05:10:41;;;;;;;29.30;13.32;;;;;;;;;;5012116;28;20324;-49
2022/10/22 05:13:11;;;;;;;25.45;13.48;;;;;;;;;;5012378;28;20352;-48
2022/10/22 05:15:40;;;;;;;27.02;14.52;;;;;;;;;;4998404;28;20050;-48
2022/10/22 05:18:07;;;;;;;27.65;13.35;;;;;;;;;;5012054;28;20077;-48
2022/10/22 05:20:34;;;;;;;28.70;15.00;;;;;;;;;;4997228;28;20463;-48
2022/10/22 05:23:11;;;;;;;25.90;13.45;;;;;;;;;;5004338;28;20046;-48
2022/10/22 05:25:47;;;;;;;28.85;13.68;;;;;;;;;;5011376;28;20050;-48
2022/10/22 05:28:15;;;;;;;25.88;13.20;;;;;;;;;;5013134;28;20053;-49
2022/10/22 05:30:44;;;;;;;27.40;13.82;;;;;;;;;;5006330;28;20085;-48
2022/10/22 05:33:14;;;;;;;29.40;14.32;;;;;;;;;;5011558;28;20046;-48
2022/10/22 05:35:43;;;;;;;28.67;14.20;;;;;;;;;;5026257;28;20049;-48
2022/10/22 05:38:13;;;;;;;25.70;12.82;;;;;;;;;;5008048;28;20065;-51
2022/10/22 05:40:41;;;;;;;26.05;14.30;;;;;;;;;;5001799;28;20543;-48
2022/10/22 05:43:07;;;;;;;28.27;14.52;;;;;;;;;;5026647;28;20049;-48
2022/10/22 05:45:36;;;;;;;26.50;14.20;;;;;;;;;;5019715;28;20064;-48
2022/10/22 05:48:02;;;;;;;28.48;13.73;;;;;;;;;;5010381;28;20673;-48
2022/10/22 05:50:29;;;;;;;25.92;13.32;;;;;;;;;;5003008;28;20050;-48
2022/10/22 05:52:57;;;;;;;24.17;13.45;;;;;;;;;;5007414;28;20053;-48
2022/10/22 05:55:35;;;;;;;27.98;14.70;;;;;;;;;;5023408;28;20069;-48
2022/10/22 05:58:03;;;;;;;30.42;15.10;;;;;;;;;;5014121;28;20049;-48
2022/10/22 06:00:34;;;;;;;29.05;15.27;;;;;;;;;;5011753;28;20487;-48
2022/10/22 06:03:03;;;;;;;31.80;15.95;;;;;;;;;;5011250;28;20538;-48
2022/10/22 06:05:30;;;;;;;36.03;16.05;;;;;;;;;;4999264;28;20057;-51
2022/10/22 06:07:58;;;;;;;27.15;15.27;;;;;;;;;;4999437;28;20050;-48
2022/10/22 06:10:26;;;;;;;24.27;12.57;;;;;;;;;;5007653;28;20076;-48
2022/10/22 06:12:52;;;;;;;27.85;14.18;;;;;;;;;;5011490;28;20054;-48
2022/10/22 06:15:22;;;;;;;29.52;14.85;;;;;;;;;;5011870;28;20052;-48
2022/10/22 06:17:50;;;;;;;29.42;14.05;;;;;;;;;;5011602;28;20053;-48
2022/10/22 06:20:18;;;;;;;26.40;14.57;;;;;;;;;;5004396;28;20069;-48
2022/10/22 06:22:44;;;;;;;26.00;13.60;;;;;;;;;;5011559;28;20042;-48
2022/10/22 06:25:13;;;;;;;33.53;16.33;;;;;;;;;;5024293;28;20053;-48
2022/10/22 06:27:45;;;;;;;35.35;17.80;;;;;;;;;;5018012;28;20065;-48
2022/10/22 06:30:13;;;;;;;32.33;16.27;;;;;;;;;;5016861;28;20054;-47
2022/10/22 06:32:42;;;;;;;29.75;16.75;;;;;;;;;;4997605;28;20056;-48
2022/10/22 06:35:13;;;;;;;31.90;16.77;;;;;;;;;;5020610;28;20493;-48
2022/10/22 06:37:39;;;;;;;31.45;15.23;;;;;;;;;;5013681;28;20058;-48
2022/10/22 06:40:07;;;;;;;31.95;15.15;;;;;;;;;;5011512;28;20688;-49
2022/10/22 06:42:36;;;;;;;27.58;15.07;;;;;;;;;;5010218;28;20414;-48
2022/10/22 06:45:06;;;;;;;31.65;15.75;;;;;;;;;;5001829;28;20069;-48
2022/10/22 06:47:32;;;;;;;27.63;14.10;;;;;;;;;;5012316;28;20073;-48
2022/10/22 06:50:02;;;;;;;27.42;14.50;;;;;;;;;;5010765;28;20058;-48
2022/10/22 06:52:32;;;;;;;27.25;13.90;;;;;;;;;;5012067;28;20107;-48
2022/10/22 06:55:02;;;;;;;27.65;14.13;;;;;;;;;;5006133;28;20475;-48
2022/10/22 06:57:32;;;;;;;28.38;14.68;;;;;;;;;;5018491;28;20064;-48
2022/10/22 07:00:02;;;;;;;28.27;13.20;;;;;;;;;;5005665;28;20074;-48
2022/10/22 07:02:32;;;;;;;24.95;13.57;;;;;;;;;;5003437;28;20046;-48
2022/10/22 07:05:02;;;;;;;25.50;14.30;;;;;;;;;;5005641;28;20387;-48
2022/10/22 07:07:32;;;;;;;22.55;12.38;;;;;;;;;;4996891;28;20050;-48
2022/10/22 07:09:58;;;;;;;26.15;14.18;;;;;;;;;;5003573;28;20050;-48
2022/10/22 07:12:27;;;;;;;35.50;18.05;;;;;;;;;;4996233;28;20058;-49
2022/10/22 07:14:54;;;;;;;34.88;17.63;;;;;;;;;;5001286;28;20054;-49
2022/10/22 07:17:20;;;;;;;34.53;18.85;;;;;;;;;;5003764;28;20058;-48
2022/10/22 07:19:49;;;;;;;27.50;15.55;;;;;;;;;;5009656;28;20053;-48
2022/10/22 07:22:15;;;;;;;33.97;18.83;;;;;;;;;;5007100;28;20054;-49
2022/10/22 07:24:42;;;;;;;38.28;19.52;;;;;;;;;;5009716;28;20415;-49
2022/10/22 07:29:59;;;;;;;30.48;17.67;;;;;;;;;;4998362;28;20065;-49
2022/10/22 07:32:30;;;;;;;33.78;17.90;;;;;;;;;;5006662;28;20258;-49
2022/10/22 07:35:12;;;;;;;27.98;15.10;;;;;;;;;;5010469;28;20050;-48
2022/10/22 07:37:42;;;;;;;31.15;15.52;;;;;;;;;;4996953;28;20050;-48
2022/10/22 07:40:12;;;;;;;28.00;16.15;;;;;;;;;;4998752;28;20054;-48
2022/10/22 07:42:40;;;;;;;28.60;17.25;;;;;;;;;;5016227;28;20426;-48
2022/10/22 07:45:11;;;;;;;32.40;16.50;;;;;;;;;;5008797;28;20358;-47
2022/10/22 07:47:37;;;;;;;29.30;16.20;;;;;;;;;;5009528;28;20050;-47
2022/10/22 07:50:23;;;;;;;29.25;16.48;;;;;;;;;;5000709;28;20074;-48
2022/10/22 07:53:06;;;;;;;33.00;18.77;;;;;;;;;;5005877;28;20041;-48
2022/10/22 07:55:36;;;;;;;28.83;16.20;;;;;;;;;;5009747;28;20129;-48
2022/10/22 07:58:03;;;;;;;28.75;15.60;;;;;;;;;;5008538;28;20073;-47
2022/10/22 08:00:31;;;;;;;28.58;16.27;;;;;;;;;;5002383;28;20474;-47
2022/10/22 08:02:58;;;;;;;25.10;14.48;;;;;;;;;;4991569;28;20054;-46
2022/10/22 08:05:28;;;;;;;28.45;15.30;;;;;;;;;;4994952;28;20045;-45
2022/10/22 08:08:09;;;;;;;29.73;14.77;;;;;;;;;;4998238;28;20058;-45
2022/10/22 08:10:38;;;;;;;27.13;14.95;;;;;;;;;;5009783;28;20064;-46
2022/10/22 08:13:04;;;;;;;28.67;16.02;;;;;;;;;;5005161;28;20069;-46
2022/10/22 08:15:34;;;;;;;26.95;15.48;;;;;;;;;;5009929;28;20169;-45
2022/10/22 08:18:04;;;;;;;33.30;17.98;;;;;;;;;;4998126;28;20054;-45
2022/10/22 08:20:33;;;;;;;30.42;15.95;;;;;;;;;;5010064;28;20125;-46
2022/10/22 08:23:04;;;;;;;26.55;14.88;;;;;;;;;;5010968;28;20046;-46
2022/10/22 08:25:32;;;;;;;26.50;15.45;;;;;;;;;;5013848;28;20050;-44
2022/10/22 08:28:00;;;;;;;28.70;15.20;;;;;;;;;;5001079;28;20054;-45
2022/10/22 08:30:28;;;;;;;26.75;14.88;;;;;;;;;;5006397;28;20064;-46
2022/10/22 08:32:58;;;;;;;26.80;15.85;;;;;;;;;;5013426;28;20134;-46
2022/10/22 08:35:25;;;;;;;27.80;15.43;;;;;;;;;;5002032;28;20128;-47
2022/10/22 08:40:48;;;;;;;32.53;16.05;;;;;;;;;;5021738;28;20061;-46
2022/10/22 08:43:22;;;;;;;25.52;13.90;;;;;;;;;;5010320;28;20054;-47
2022/10/22 08:45:57;;;;;;;29.55;16.80;;;;;;;;;;5010908;28;20057;-46
2022/10/22 08:48:30;;;;;;;25.10;13.77;;;;;;;;;;4999765;28;20065;-46
2022/10/22 08:50:57;;;;;;;29.30;15.25;;;;;;;;;;5001038;28;20658;-47
2022/10/22 08:53:31;;;;;;;32.35;17.48;;;;;;;;;;5005982;28;20038;-44
2022/10/22 08:56:00;;;;;;;30.30;15.07;;;;;;;;;;5011066;28;20054;-43
2022/10/22 08:58:31;;;;;;;30.27;16.10;;;;;;;;;;4996837;28;20056;-43
2022/10/22 09:03:48;;;;;;;32.65;17.42;;;;;;;;;;5018818;28;20053;-44
2022/10/22 09:06:18;;;;;;;30.63;14.65;;;;;;;;;;5013086;28;20145;-46
2022/10/22 09:08:46;;;;;;;35.28;19.40;;;;;;;;;;4999225;28;20057;-45
2022/10/22 09:11:31;;;;;;;29.95;16.60;;;;;;;;;;5011734;28;20057;-46
2022/10/22 09:13:57;;;;;;;30.58;17.40;;;;;;;;;;5002631;28;20050;-46
2022/10/22 09:16:30;;;;;;;35.75;21.05;;;;;;;;;;5005094;28;20055;-45
2022/10/22 09:19:05;;;;;;;32.60;20.15;;;;;;;;;;5004891;28;20046;-45
2022/10/22 09:21:38;;;;;;;31.02;17.45;;;;;;;;;;5001986;28;20623;-46
2022/10/22 09:24:10;;;;;;;37.65;19.05;;;;;;;;;;5005905;28;20133;-45
2022/10/22 09:26:40;;;;;;;32.92;19.83;;;;;;;;;;5009332;28;20061;-45
2022/10/22 09:29:09;;;;;;;33.33;18.33;;;;;;;;;;5002308;28;20060;-44
2022/10/22 09:34:19;;;;;;;34.70;19.48;;;;;;;;;;5004705;28;20046;-46
2022/10/22 09:36:48;;;;;;;32.65;18.75;;;;;;;;;;5009331;28;20541;-45
2022/10/22 09:39:24;;;;;;;35.58;19.13;;;;;;;;;;5010966;28;20090;-46
2022/10/22 09:42:00;;;;;;;37.17;19.77;;;;;;;;;;5008360;28;20050;-46
2022/10/22 09:44:26;;;;;;;36.33;21.38;;;;;;;;;;5011526;28;20049;-45
2022/10/22 09:46:54;;;;;;;33.38;19.05;;;;;;;;;;5015350;28;20053;-45
2022/10/22 09:49:23;;;;;;;37.20;20.02;;;;;;;;;;5002626;28;20046;-46
2022/10/22 09:51:52;;;;;;;40.33;20.17;;;;;;;;;;5002719;28;20495;-45
2022/10/22 09:54:19;;;;;;;35.13;19.55;;;;;;;;;;5008799;28;20057;-45
2022/10/22 09:57:03;;;;;;;37.53;21.27;;;;;;;;;;5007712;28;20049;-44
2022/10/22 09:59:32;;;;;;;33.78;17.77;;;;;;;;;;5008827;28;20374;-47
2022/10/22 10:02:02;;;;;;;27.73;15.35;;;;;;;;;;5002346;28;20050;-47
2022/10/22 10:04:34;;;;;;;27.17;16.25;;;;;;;;;;5011873;28;20061;-47
2022/10/22 10:07:03;;;;;;;31.00;15.95;;;;;;;;;;5009661;28;20085;-47
2022/10/22 10:09:31;;;;;;;27.70;15.63;;;;;;;;;;5008889;28;20702;-47
2022/10/22 10:12:17;;;;;;;30.15;15.25;;;;;;;;;;5023574;28;20060;-48
2022/10/22 10:14:51;;;;;;;30.02;15.20;;;;;;;;;;4998572;28;20707;-49
2022/10/22 10:17:24;;;;;;;37.42;17.25;;;;;;;;;;5022022;28;20053;-46
2022/10/22 10:19:56;;;;;;;30.52;16.70;;;;;;;;;;5027695;28;20069;-46
2022/10/22 10:22:42;;;;;;;37.40;18.52;;;;;;;;;;5010942;28;20053;-47
2022/10/22 10:25:18;;;;;;;30.92;16.65;;;;;;;;;;5011242;28;20164;-48
2022/10/22 10:27:53;;;;;;;28.63;14.90;;;;;;;;;;5013685;28;20045;-48
2022/10/22 10:30:22;;;;;;;;;;;;;;;;;;5008547;28;20046;-46
2022/10/22 10:33:01;;;;;;;27.50;13.35;;;;;;;;;;5008229;28;19925;-46
2022/10/22 10:35:31;;;;;;;27.50;15.05;;;;;;;;;;5005593;28;20056;-47
2022/10/22 10:38:17;;;;;;;28.42;16.73;;;;;;;;;;5010780;28;20479;-47
2022/10/22 10:40:48;;;;;;;35.05;17.60;;;;;;;;;;5001755;28;20341;-46
2022/10/22 10:43:22;;;;;;;33.50;18.98;;;;;;;;;;5000600;28;20050;-47
2022/10/22 10:45:59;;;;;;;32.28;17.90;;;;;;;;;;5003086;28;20046;-49
2022/10/22 10:48:43;;;;;;;32.92;16.75;;;;;;;;;;5010964;28;20111;-46
2022/10/22 10:51:20;;;;;;;32.22;17.35;;;;;;;;;;5010989;28;20058;-47
2022/10/22 10:53:54;;;;;;;27.90;16.65;;;;;;;;;;5007481;28;20050;-47
2022/10/22 10:56:35;;;;;;;23.30;13.25;;;;;;;;;;5015327;28;20049;-47
2022/10/22 10:59:13;;;;;;;28.92;14.60;;;;;;;;;;5012138;28;20526;-47
2022/10/22 11:01:45;;;;;;;24.90;12.90;;;;;;;;;;5010592;28;20051;-47
2022/10/22 11:04:21;;;;;;;24.27;12.85;;;;;;;;;;5004868;28;20041;-47
2022/10/22 11:06:48;;;;;;;;;;;;;;;;;;5008231;28;20053;-46
2022/10/22 11:09:21;;;;;;;20.58;11.43;;;;;;;;;;4992654;28;19921;-46
2022/10/22 11:11:51;;;;;;;25.05;12.80;;;;;;;;;;4996242;28;20042;-46
2022/10/22 11:14:22;;;;;;;16.90;9.30;;;;;;;;;;5010280;28;20054;-46
2022/10/22 11:16:51;;;;;;;15.77;8.82;;;;;;;;;;5010583;28;20046;-47
2022/10/22 11:19:22;;;;;;;15.38;8.70;;;;;;;;;;5011179;28;20049;-47
2022/10/22 11:21:54;;;;;;;17.48;9.20;;;;;;;;;;5012783;28;20049;-46
2022/10/22 11:24:34;;;;;;;15.90;8.60;;;;;;;;;;5010591;28;20046;-47
2022/10/22 11:27:12;;;;;;;20.05;10.10;;;;;;;;;;5022699;28;20052;-45
2022/10/22 11:29:47;;;;;;;22.25;10.27;;;;;;;;;;5015779;28;20487;-46
2022/10/22 11:32:15;;;;;;;17.00;8.80;;;;;;;;;;5008820;28;20053;-47
2022/10/22 11:34:47;;;;;;;16.85;9.20;;;;;;;;;;5012760;28;20127;-47
2022/10/22 11:37:14;;;;;;;18.15;9.60;;;;;;;;;;5010614;28;20046;-50
2022/10/22 11:39:46;;;;;;;16.02;9.20;;;;;;;;;;5001421;28;20056;-47
2022/10/22 11:42:18;;;;;;;16.90;8.48;;;;;;;;;;5008782;28;20112;-47
2022/10/22 11:45:02;;;;;;;12.98;7.53;;;;;;;;;;5011565;28;20050;-46
2022/10/22 11:47:38;;;;;;;13.88;8.07;;;;;;;;;;5006029;28;20042;-48
2022/10/22 11:50:20;;;;;;;13.30;7.20;;;;;;;;;;5012378;28;20101;-46
2022/10/22 11:53:01;;;;;;;16.60;8.65;;;;;;;;;;5007479;28;20455;-47
2022/10/22 11:55:35;;;;;;;16.27;10.00;;;;;;;;;;5012343;28;20050;-47
2022/10/22 11:58:02;;;;;;;14.98;8.50;;;;;;;;;;5012561;28;20075;-47
2022/10/22 12:00:49;;;;;;;14.25;8.88;;;;;;;;;;5005850;28;20054;-47
2022/10/22 12:03:19;;;;;;;17.70;9.93;;;;;;;;;;5002887;28;20077;-46
2022/10/22 12:06:02;;;;;;;16.92;9.57;;;;;;;;;;5005408;28;20057;-46
2022/10/22 12:08:30;;;;;;;17.08;9.05;;;;;;;;;;4997278;28;20046;-46
2022/10/22 12:11:07;;;;;;;13.30;8.45;;;;;;;;;;5005866;28;20368;-46
2022/10/22 12:13:57;;;;;;;17.80;9.80;;;;;;;;;;5013103;28;20050;-46
2022/10/22 12:16:27;;;;;;;15.73;8.45;;;;;;;;;;5011783;28;20133;-50
2022/10/22 12:18:58;;;;;;;14.73;8.35;;;;;;;;;;5012691;28;20054;-48
2022/10/22 12:21:28;;;;;;;11.70;6.95;;;;;;;;;;5009659;28;20053;-46
2022/10/22 12:23:55;;;;;;;16.88;9.05;;;;;;;;;;5004401;28;20057;-47
2022/10/22 12:26:25;;;;;;;21.88;10.25;;;;;;;;;;4998774;28;20064;-46
2022/10/22 12:28:56;;;;;;;19.05;8.88;;;;;;;;;;5005792;28;20054;-47
2022/10/22 12:31:23;;;;;;;17.63;8.52;;;;;;;;;;5001995;28;20058;-46
2022/10/22 12:34:02;;;;;;;21.00;9.23;;;;;;;;;;5002500;28;20042;-49
2022/10/22 12:36:29;;;;;;;22.63;10.57;;;;;;;;;;5009846;28;20050;-48
2022/10/22 12:38:59;;;;;;;20.90;9.55;;;;;;;;;;5007679;28;20054;-46
2022/10/22 12:41:30;;;;;;;21.42;9.18;;;;;;;;;;5000618;28;20062;-45
2022/10/22 12:44:01;;;;;;;23.38;11.30;;;;;;;;;;5014662;28;20066;-46
2022/10/22 12:46:31;;;;;;;30.90;13.52;;;;;;;;;;5016276;28;20046;-45
2022/10/22 12:49:13;;;;;;;27.40;12.93;;;;;;;;;;5003617;28;20053;-46
2022/10/22 12:51:41;;;;;;;21.98;10.52;;;;;;;;;;5015647;28;20054;-46
2022/10/22 12:54:14;;;;;;;42.38;17.67;;;;;;;;;;5015019;28;20140;-47
2022/10/22 12:56:42;;;;;;;23.00;10.75;;;;;;;;;;5017769;28;20080;-45
2022/10/22 12:59:17;;;;;;;26.20;11.35;;;;;;;;;;5000899;28;20062;-47
2022/10/22 13:01:46;;;;;;;25.30;10.30;;;;;;;;;;5007627;28;20513;-44
2022/10/22 13:04:22;;;;;;;32.65;15.05;;;;;;;;;;5016723;28;20136;-45
2022/10/22 13:06:53;;;;;;;33.45;14.80;;;;;;;;;;5017211;28;20375;-46
2022/10/22 13:09:22;;;;;;;30.27;13.52;;;;;;;;;;5017199;28;20069;-47
2022/10/22 13:11:52;;;;;;;28.80;12.80;;;;;;;;;;5002553;28;20054;-45
2022/10/22 13:14:23;;;;;;;27.77;10.60;;;;;;;;;;5015711;28;20057;-46
2022/10/22 13:17:13;;;;;;;35.55;16.75;;;;;;;;;;5028642;28;20447;-44
2022/10/22 13:20:04;;;;;;;32.25;13.60;;;;;;;;;;5016008;28;20057;-44
2022/10/22 13:22:40;;;;;;;40.65;16.40;;;;;;;;;;5006359;28;20061;-46
2022/10/22 13:25:22;;;;;;;34.50;12.68;;;;;;;;;;5015048;28;20493;-45
2022/10/22 13:27:50;;;;;;;35.90;14.90;;;;;;;;;;5009405;28;20057;-45
2022/10/22 13:30:27;;;;;;;37.17;14.35;;;;;;;;;;5015034;28;20532;-49
2022/10/22 13:32:57;;;;;;;37.67;15.88;;;;;;;;;;5027566;28;20053;-46
2022/10/22 13:35:39;;;;;;;28.85;12.70;;;;;;;;;;5012281;28;20046;-46
2022/10/22 13:38:13;;;;;;;30.40;12.70;;;;;;;;;;5015419;28;20128;-47
2022/10/22 13:40:41;;;;;;;28.05;12.40;;;;;;;;;;5015499;28;20081;-48
2022/10/22 13:43:09;;;;;;;41.30;16.38;;;;;;;;;;5005325;28;20054;-46
2022/10/22 13:45:36;;;;;;;35.75;15.48;;;;;;;;;;4999707;28;20356;-47
2022/10/22 13:48:06;;;;;;;34.13;14.18;;;;;;;;;;5015191;28;20073;-49
2022/10/22 13:50:39;;;;;;;34.47;14.30;;;;;;;;;;5014176;28;20058;-45
2022/10/22 13:53:16;;;;;;;35.90;14.68;;;;;;;;;;5004781;28;20450;-45
2022/10/22 13:55:52;;;;;;;31.13;13.73;;;;;;;;;;5013004;28;20458;-46
2022/10/22 13:58:23;;;;;;;32.88;13.73;;;;;;;;;;5004003;28;20061;-46
2022/10/22 14:00:54;;;;;;;30.45;14.65;;;;;;;;;;5012674;28;20129;-45
2022/10/22 14:03:25;;;;;;;37.10;16.88;;;;;;;;;;5014295;28;20554;-46
2022/10/22 14:06:07;;;;;;;32.13;13.75;;;;;;;;;;5014608;28;20133;-45
2022/10/22 14:08:37;;;;;;;33.58;13.52;;;;;;;;;;5004697;28;20054;-45
2022/10/22 14:11:07;;;;;;;28.85;12.85;;;;;;;;;;5014337;28;20081;-46
2022/10/22 14:13:35;;;;;;;30.27;13.85;;;;;;;;;;5007712;28;20046;-45
2022/10/22 14:16:04;;;;;;;28.73;13.18;;;;;;;;;;5007748;28;20057;-46
2022/10/22 14:18:34;;;;;;;38.47;15.52;;;;;;;;;;5014164;28;20073;-46
2022/10/22 14:21:07;;;;;;;29.02;12.75;;;;;;;;;;5013802;28;20054;-46
2022/10/22 14:23:37;;;;;;;45.67;17.02;;;;;;;;;;5013834;28;20060;-46
2022/10/22 14:26:06;;;;;;;34.20;15.20;;;;;;;;;;5010326;28;20077;-45
2022/10/22 14:28:36;;;;;;;38.47;17.27;;;;;;;;;;5012065;28;20048;-45
2022/10/22 14:31:06;;;;;;;35.78;14.50;;;;;;;;;;5013093;28;20401;-45
2022/10/22 14:33:36;;;;;;;26.17;12.18;;;;;;;;;;5003110;28;20387;-45
2022/10/22 14:36:06;;;;;;;31.10;13.20;;;;;;;;;;5027647;28;20054;-46
2022/10/22 14:38:36;;;;;;;30.65;13.82;;;;;;;;;;5020281;28;20431;-45
2022/10/22 14:41:10;;;;;;;33.60;13.35;;;;;;;;;;5008141;28;20058;-46
2022/10/22 14:43:38;;;;;;;30.90;13.57;;;;;;;;;;5006180;28;20061;-46
2022/10/22 14:46:07;;;;;;;36.00;15.48;;;;;;;;;;5007180;28;20048;-45
2022/10/22 14:48:35;;;;;;;29.48;12.40;;;;;;;;;;5004023;28;20357;-47
2022/10/22 14:51:01;;;;;;;35.95;15.52;;;;;;;;;;5006404;28;20054;-45
2022/10/22 14:53:31;;;;;;;25.83;11.90;;;;;;;;;;5003860;28;20058;-46